sensor_id;sensor_type;location;lat;lon;timestamp;P1;durP1;ratioP1;P2;durP2;ratioP2
41657;SDS011;27347;57.132;-2.084;2022-08-18T00:01:49;6.72;;;1.70;;
41657;SDS011;27347;57.132;-2.084;2022-08-18T00:04:33;3.15;;;1.48;;
41657;SDS011;27347;57.132;-2.084;2022-08-18T00:07:06;3.88;;;1.20;;
41657;SDS011;27347;57.132;-2.084;2022-08-18T00:09:34;3.80;;;1.50;;
41657;SDS011;27347;57.132;-2.084;2022-08-18T00:12:01;2.53;;;1.38;;
41657;SDS011;27347;57.132;-2.084;2022-08-18T00:14:30;7.07;;;1.73;;
41657;SDS011;27347;57.132;-2.084;2022-08-18T00:16:55;4.93;;;1.77;;
41657;SDS011;27347;57.132;-2.084;2022-08-18T00:19:21;3.38;;;1.23;;
41657;SDS011;27347;57.132;-2.084;2022-08-18T00:21:47;8.40;;;2.00;;
41657;SDS011;27347;57.132;-2.084;2022-08-18T00:24:13;4.07;;;1.50;;
41657;SDS011;27347;57.132;-2.084;2022-08-18T00:26:38;5.32;;;1.48;;
41657;SDS011;27347;57.132;-2.084;2022-08-18T00:29:04;6.00;;;1.30;;
41657;SDS011;27347;57.132;-2.084;2022-08-18T00:31:29;5.15;;;2.03;;
41657;SDS011;27347;57.132;-2.084;2022-08-18T00:33:55;7.35;;;2.25;;
41657;SDS011;27347;57.132;-2.084;2022-08-18T00:36:21;5.95;;;1.38;;
41657;SDS011;27347;57.132;-2.084;2022-08-18T00:38:47;5.10;;;1.67;;
41657;SDS011;27347;57.132;-2.084;2022-08-18T00:41:12;5.15;;;1.67;;
41657;SDS011;27347;57.132;-2.084;2022-08-18T00:43:45;3.97;;;1.90;;
41657;SDS011;27347;57.132;-2.084;2022-08-18T00:46:16;3.92;;;1.60;;
41657;SDS011;27347;57.132;-2.084;2022-08-18T00:48:44;5.22;;;1.50;;
41657;SDS011;27347;57.132;-2.084;2022-08-18T00:51:55;3.78;;;1.52;;
41657;SDS011;27347;57.132;-2.084;2022-08-18T00:54:09;7.20;;;1.55;;
41657;SDS011;27347;57.132;-2.084;2022-08-18T00:56:42;6.72;;;1.90;;
41657;SDS011;27347;57.132;-2.084;2022-08-18T00:59:15;3.10;;;1.65;;
41657;SDS011;27347;57.132;-2.084;2022-08-18T01:01:45;2.67;;;1.50;;
41657;SDS011;27347;57.132;-2.084;2022-08-18T01:04:13;2.75;;;1.30;;
41657;SDS011;27347;57.132;-2.084;2022-08-18T01:06:51;5.25;;;1.50;;
41657;SDS011;27347;57.132;-2.084;2022-08-18T01:09:21;5.45;;;2.05;;
41657;SDS011;27347;57.132;-2.084;2022-08-18T01:11:47;4.53;;;1.90;;
41657;SDS011;27347;57.132;-2.084;2022-08-18T01:14:15;3.33;;;1.45;;
41657;SDS011;27347;57.132;-2.084;2022-08-18T01:16:42;7.93;;;1.75;;
41657;SDS011;27347;57.132;-2.084;2022-08-18T01:19:30;4.97;;;1.80;;
41657;SDS011;27347;57.132;-2.084;2022-08-18T01:22:18;4.03;;;1.60;;
41657;SDS011;27347;57.132;-2.084;2022-08-18T01:24:47;4.20;;;1.60;;
41657;SDS011;27347;57.132;-2.084;2022-08-18T01:27:32;2.60;;;1.30;;
41657;SDS011;27347;57.132;-2.084;2022-08-18T01:30:02;4.82;;;1.55;;
41657;SDS011;27347;57.132;-2.084;2022-08-18T01:32:34;6.82;;;1.90;;
41657;SDS011;27347;57.132;-2.084;2022-08-18T01:35:00;4.78;;;1.73;;
41657;SDS011;27347;57.132;-2.084;2022-08-18T01:37:25;3.42;;;1.50;;
41657;SDS011;27347;57.132;-2.084;2022-08-18T01:39:51;3.85;;;1.50;;
41657;SDS011;27347;57.132;-2.084;2022-08-18T01:42:16;4.60;;;1.90;;
41657;SDS011;27347;57.132;-2.084;2022-08-18T01:44:43;3.33;;;1.35;;
41657;SDS011;27347;57.132;-2.084;2022-08-18T01:47:10;4.05;;;1.48;;
41657;SDS011;27347;57.132;-2.084;2022-08-18T01:49:36;5.10;;;1.55;;
41657;SDS011;27347;57.132;-2.084;2022-08-18T01:52:03;3.55;;;1.33;;
41657;SDS011;27347;57.132;-2.084;2022-08-18T01:54:30;2.38;;;1.20;;
41657;SDS011;27347;57.132;-2.084;2022-08-18T01:56:56;4.28;;;1.58;;
41657;SDS011;27347;57.132;-2.084;2022-08-18T01:59:22;5.25;;;1.70;;
41657;SDS011;27347;57.132;-2.084;2022-08-18T02:01:48;5.43;;;1.73;;
41657;SDS011;27347;57.132;-2.084;2022-08-18T02:04:15;5.18;;;1.40;;
41657;SDS011;27347;57.132;-2.084;2022-08-18T02:06:41;3.70;;;1.30;;
41657;SDS011;27347;57.132;-2.084;2022-08-18T02:09:07;5.40;;;1.60;;
41657;SDS011;27347;57.132;-2.084;2022-08-18T02:11:32;1.80;;;1.00;;
41657;SDS011;27347;57.132;-2.084;2022-08-18T02:13:58;3.88;;;1.58;;
41657;SDS011;27347;57.132;-2.084;2022-08-18T02:16:23;2.70;;;1.17;;
41657;SDS011;27347;57.132;-2.084;2022-08-18T02:18:48;5.22;;;1.35;;
41657;SDS011;27347;57.132;-2.084;2022-08-18T02:21:16;5.30;;;1.20;;
41657;SDS011;27347;57.132;-2.084;2022-08-18T02:23:43;5.30;;;1.40;;
41657;SDS011;27347;57.132;-2.084;2022-08-18T02:26:11;4.22;;;1.23;;
41657;SDS011;27347;57.132;-2.084;2022-08-18T02:28:38;4.63;;;1.40;;
41657;SDS011;27347;57.132;-2.084;2022-08-18T02:31:08;3.80;;;1.33;;
41657;SDS011;27347;57.132;-2.084;2022-08-18T02:33:35;8.27;;;1.60;;
41657;SDS011;27347;57.132;-2.084;2022-08-18T02:36:01;4.13;;;1.38;;
41657;SDS011;27347;57.132;-2.084;2022-08-18T02:38:27;6.10;;;1.55;;
41657;SDS011;27347;57.132;-2.084;2022-08-18T02:40:54;4.47;;;1.33;;
41657;SDS011;27347;57.132;-2.084;2022-08-18T02:43:24;5.15;;;1.30;;
41657;SDS011;27347;57.132;-2.084;2022-08-18T02:45:50;7.88;;;1.50;;
41657;SDS011;27347;57.132;-2.084;2022-08-18T02:48:15;6.35;;;1.40;;
41657;SDS011;27347;57.132;-2.084;2022-08-18T02:50:43;5.80;;;1.50;;
41657;SDS011;27347;57.132;-2.084;2022-08-18T02:53:11;4.35;;;2.03;;
41657;SDS011;27347;57.132;-2.084;2022-08-18T02:55:46;2.42;;;1.13;;
41657;SDS011;27347;57.132;-2.084;2022-08-18T02:58:12;6.63;;;1.42;;
41657;SDS011;27347;57.132;-2.084;2022-08-18T03:00:38;6.32;;;1.83;;
41657;SDS011;27347;57.132;-2.084;2022-08-18T03:03:03;10.77;;;1.60;;
41657;SDS011;27347;57.132;-2.084;2022-08-18T03:05:29;6.53;;;1.40;;
41657;SDS011;27347;57.132;-2.084;2022-08-18T03:07:55;5.03;;;1.70;;
41657;SDS011;27347;57.132;-2.084;2022-08-18T03:10:20;4.72;;;1.70;;
41657;SDS011;27347;57.132;-2.084;2022-08-18T03:12:46;6.15;;;1.58;;
41657;SDS011;27347;57.132;-2.084;2022-08-18T03:15:11;4.55;;;1.33;;
41657;SDS011;27347;57.132;-2.084;2022-08-18T03:17:37;4.38;;;1.60;;
41657;SDS011;27347;57.132;-2.084;2022-08-18T03:20:03;5.22;;;1.45;;
41657;SDS011;27347;57.132;-2.084;2022-08-18T03:22:29;5.55;;;1.77;;
41657;SDS011;27347;57.132;-2.084;2022-08-18T03:24:56;5.75;;;1.30;;
41657;SDS011;27347;57.132;-2.084;2022-08-18T03:27:22;13.85;;;1.85;;
41657;SDS011;27347;57.132;-2.084;2022-08-18T03:29:47;7.55;;;1.80;;
41657;SDS011;27347;57.132;-2.084;2022-08-18T03:32:12;7.43;;;1.83;;
41657;SDS011;27347;57.132;-2.084;2022-08-18T03:34:38;5.53;;;1.55;;
41657;SDS011;27347;57.132;-2.084;2022-08-18T03:37:03;5.90;;;1.67;;
41657;SDS011;27347;57.132;-2.084;2022-08-18T03:39:29;4.03;;;1.23;;
41657;SDS011;27347;57.132;-2.084;2022-08-18T03:41:55;2.90;;;1.33;;
41657;SDS011;27347;57.132;-2.084;2022-08-18T03:44:22;7.35;;;1.83;;
41657;SDS011;27347;57.132;-2.084;2022-08-18T03:46:47;7.82;;;1.23;;
41657;SDS011;27347;57.132;-2.084;2022-08-18T03:49:14;8.30;;;2.33;;
41657;SDS011;27347;57.132;-2.084;2022-08-18T03:51:40;7.00;;;1.83;;
41657;SDS011;27347;57.132;-2.084;2022-08-18T03:54:13;7.13;;;2.17;;
41657;SDS011;27347;57.132;-2.084;2022-08-18T03:56:41;7.32;;;2.38;;
41657;SDS011;27347;57.132;-2.084;2022-08-18T03:59:09;9.57;;;2.28;;
41657;SDS011;27347;57.132;-2.084;2022-08-18T04:01:37;9.73;;;2.47;;
41657;SDS011;27347;57.132;-2.084;2022-08-18T04:04:04;8.02;;;2.25;;
41657;SDS011;27347;57.132;-2.084;2022-08-18T04:06:37;6.43;;;2.08;;
41657;SDS011;27347;57.132;-2.084;2022-08-18T04:09:10;4.13;;;1.80;;
41657;SDS011;27347;57.132;-2.084;2022-08-18T04:11:37;5.80;;;2.00;;
41657;SDS011;27347;57.132;-2.084;2022-08-18T04:14:07;8.30;;;2.10;;
41657;SDS011;27347;57.132;-2.084;2022-08-18T04:16:33;10.55;;;2.20;;
41657;SDS011;27347;57.132;-2.084;2022-08-18T04:18:59;8.75;;;2.05;;
41657;SDS011;27347;57.132;-2.084;2022-08-18T04:21:25;4.57;;;2.15;;
41657;SDS011;27347;57.132;-2.084;2022-08-18T04:23:51;4.65;;;2.10;;
41657;SDS011;27347;57.132;-2.084;2022-08-18T04:26:16;9.93;;;2.03;;
41657;SDS011;27347;57.132;-2.084;2022-08-18T04:28:43;9.93;;;2.20;;
41657;SDS011;27347;57.132;-2.084;2022-08-18T04:31:11;10.95;;;2.10;;
41657;SDS011;27347;57.132;-2.084;2022-08-18T04:33:38;5.05;;;1.60;;
41657;SDS011;27347;57.132;-2.084;2022-08-18T04:36:08;19.65;;;3.10;;
41657;SDS011;27347;57.132;-2.084;2022-08-18T04:38:35;5.85;;;2.05;;
41657;SDS011;27347;57.132;-2.084;2022-08-18T04:41:01;5.07;;;1.80;;
41657;SDS011;27347;57.132;-2.084;2022-08-18T04:43:28;8.52;;;2.33;;
41657;SDS011;27347;57.132;-2.084;2022-08-18T04:45:54;7.88;;;1.98;;
41657;SDS011;27347;57.132;-2.084;2022-08-18T04:48:25;4.30;;;2.17;;
41657;SDS011;27347;57.132;-2.084;2022-08-18T04:50:52;7.35;;;2.28;;
41657;SDS011;27347;57.132;-2.084;2022-08-18T04:53:18;9.15;;;2.45;;
41657;SDS011;27347;57.132;-2.084;2022-08-18T04:56:02;9.45;;;2.55;;
41657;SDS011;27347;57.132;-2.084;2022-08-18T04:58:28;13.25;;;2.60;;
41657;SDS011;27347;57.132;-2.084;2022-08-18T05:01:00;10.40;;;2.50;;
41657;SDS011;27347;57.132;-2.084;2022-08-18T05:03:26;11.30;;;2.58;;
41657;SDS011;27347;57.132;-2.084;2022-08-18T05:05:55;10.80;;;2.80;;
41657;SDS011;27347;57.132;-2.084;2022-08-18T05:08:22;9.13;;;2.80;;
41657;SDS011;27347;57.132;-2.084;2022-08-18T05:10:52;14.05;;;2.72;;
41657;SDS011;27347;57.132;-2.084;2022-08-18T05:13:18;12.48;;;2.88;;
41657;SDS011;27347;57.132;-2.084;2022-08-18T05:15:44;6.70;;;2.55;;
41657;SDS011;27347;57.132;-2.084;2022-08-18T05:18:09;16.17;;;3.05;;
41657;SDS011;27347;57.132;-2.084;2022-08-18T05:20:38;11.70;;;2.50;;
41657;SDS011;27347;57.132;-2.084;2022-08-18T05:23:04;12.18;;;2.83;;
41657;SDS011;27347;57.132;-2.084;2022-08-18T05:25:30;12.95;;;3.42;;
41657;SDS011;27347;57.132;-2.084;2022-08-18T05:27:55;15.82;;;3.13;;
41657;SDS011;27347;57.132;-2.084;2022-08-18T05:30:21;13.75;;;3.10;;
41657;SDS011;27347;57.132;-2.084;2022-08-18T05:32:46;11.80;;;3.38;;
41657;SDS011;27347;57.132;-2.084;2022-08-18T05:35:14;16.38;;;2.90;;
41657;SDS011;27347;57.132;-2.084;2022-08-18T05:38:07;9.93;;;2.80;;
41657;SDS011;27347;57.132;-2.084;2022-08-18T05:43:30;12.13;;;2.83;;
41657;SDS011;27347;57.132;-2.084;2022-08-18T05:45:56;12.50;;;2.60;;
41657;SDS011;27347;57.132;-2.084;2022-08-18T05:48:23;10.88;;;2.80;;
41657;SDS011;27347;57.132;-2.084;2022-08-18T05:50:48;16.25;;;3.70;;
41657;SDS011;27347;57.132;-2.084;2022-08-18T05:53:15;18.20;;;3.42;;
41657;SDS011;27347;57.132;-2.084;2022-08-18T05:58:36;12.32;;;2.90;;
41657;SDS011;27347;57.132;-2.084;2022-08-18T06:01:05;13.77;;;3.00;;
41657;SDS011;27347;57.132;-2.084;2022-08-18T06:03:37;13.27;;;2.95;;
41657;SDS011;27347;57.132;-2.084;2022-08-18T06:06:10;11.80;;;3.88;;
41657;SDS011;27347;57.132;-2.084;2022-08-18T06:08:38;18.67;;;4.03;;
41657;SDS011;27347;57.132;-2.084;2022-08-18T06:11:06;12.63;;;3.17;;
41657;SDS011;27347;57.132;-2.084;2022-08-18T06:13:35;8.82;;;2.55;;
41657;SDS011;27347;57.132;-2.084;2022-08-18T06:21:33;13.57;;;3.38;;
41657;SDS011;27347;57.132;-2.084;2022-08-18T06:26:53;9.57;;;2.45;;
41657;SDS011;27347;57.132;-2.084;2022-08-18T06:37:33;11.77;;;2.90;;
41657;SDS011;27347;57.132;-2.084;2022-08-18T06:40:20;12.68;;;3.05;;
41657;SDS011;27347;57.132;-2.084;2022-08-18T06:42:46;17.63;;;3.22;;
41657;SDS011;27347;57.132;-2.084;2022-08-18T06:45:12;12.02;;;3.22;;
41657;SDS011;27347;57.132;-2.084;2022-08-18T06:47:46;17.85;;;3.70;;
41657;SDS011;27347;57.132;-2.084;2022-08-18T06:50:59;12.07;;;2.85;;
41657;SDS011;27347;57.132;-2.084;2022-08-18T06:53:11;14.17;;;3.20;;
41657;SDS011;27347;57.132;-2.084;2022-08-18T06:55:38;13.32;;;3.60;;
41657;SDS011;27347;57.132;-2.084;2022-08-18T07:03:18;14.93;;;2.97;;
41657;SDS011;27347;57.132;-2.084;2022-08-18T07:08:47;13.45;;;2.75;;
41657;SDS011;27347;57.132;-2.084;2022-08-18T07:14:42;11.82;;;3.45;;
41657;SDS011;27347;57.132;-2.084;2022-08-18T07:16:45;11.13;;;3.38;;
41657;SDS011;27347;57.132;-2.084;2022-08-18T07:19:17;11.30;;;3.78;;
41657;SDS011;27347;57.132;-2.084;2022-08-18T07:21:46;13.85;;;3.28;;
41657;SDS011;27347;57.132;-2.084;2022-08-18T07:24:38;11.60;;;3.28;;
41657;SDS011;27347;57.132;-2.084;2022-08-18T07:27:10;7.85;;;2.85;;
41657;SDS011;27347;57.132;-2.084;2022-08-18T07:29:38;20.75;;;4.88;;
41657;SDS011;27347;57.132;-2.084;2022-08-18T07:32:08;10.68;;;3.88;;
41657;SDS011;27347;57.132;-2.084;2022-08-18T07:34:39;11.50;;;3.42;;
41657;SDS011;27347;57.132;-2.084;2022-08-18T07:37:18;13.07;;;4.20;;
41657;SDS011;27347;57.132;-2.084;2022-08-18T07:45:20;13.45;;;4.07;;
41657;SDS011;27347;57.132;-2.084;2022-08-18T07:50:21;11.48;;;3.00;;
41657;SDS011;27347;57.132;-2.084;2022-08-18T08:00:28;15.43;;;3.58;;
41657;SDS011;27347;57.132;-2.084;2022-08-18T08:11:09;9.35;;;2.70;;
41657;SDS011;27347;57.132;-2.084;2022-08-18T08:13:49;10.98;;;3.17;;
41657;SDS011;27347;57.132;-2.084;2022-08-18T08:22:18;14.93;;;3.40;;
41657;SDS011;27347;57.132;-2.084;2022-08-18T08:27:27;14.73;;;3.70;;
41657;SDS011;27347;57.132;-2.084;2022-08-18T08:30:17;14.27;;;4.10;;
41657;SDS011;27347;57.132;-2.084;2022-08-18T08:32:57;19.80;;;4.47;;
41657;SDS011;27347;57.132;-2.084;2022-08-18T08:35:38;15.73;;;3.83;;
41657;SDS011;27347;57.132;-2.084;2022-08-18T08:38:07;19.55;;;4.00;;
41657;SDS011;27347;57.132;-2.084;2022-08-18T08:40:48;16.23;;;4.20;;
41657;SDS011;27347;57.132;-2.084;2022-08-18T08:43:22;15.27;;;3.75;;
41657;SDS011;27347;57.132;-2.084;2022-08-18T08:46:02;15.23;;;4.53;;
41657;SDS011;27347;57.132;-2.084;2022-08-18T08:48:38;15.75;;;3.65;;
41657;SDS011;27347;57.132;-2.084;2022-08-18T08:51:16;10.65;;;3.40;;
41657;SDS011;27347;57.132;-2.084;2022-08-18T08:53:49;18.00;;;4.57;;
41657;SDS011;27347;57.132;-2.084;2022-08-18T08:56:19;13.80;;;3.30;;
41657;SDS011;27347;57.132;-2.084;2022-08-18T08:58:47;9.07;;;4.15;;
41657;SDS011;27347;57.132;-2.084;2022-08-18T09:01:21;17.02;;;4.07;;
41657;SDS011;27347;57.132;-2.084;2022-08-18T09:04:14;15.05;;;4.40;;
41657;SDS011;27347;57.132;-2.084;2022-08-18T09:07:01;9.65;;;3.47;;
41657;SDS011;27347;57.132;-2.084;2022-08-18T09:15:02;18.90;;;4.53;;
41657;SDS011;27347;57.132;-2.084;2022-08-18T09:17:48;14.38;;;4.72;;
41657;SDS011;27347;57.132;-2.084;2022-08-18T09:23:15;13.27;;;4.18;;
41657;SDS011;27347;57.132;-2.084;2022-08-18T09:36:08;12.70;;;4.30;;
41657;SDS011;27347;57.132;-2.084;2022-08-18T09:38:54;15.85;;;4.97;;
41657;SDS011;27347;57.132;-2.084;2022-08-18T09:47:11;12.65;;;4.28;;
41657;SDS011;27347;57.132;-2.084;2022-08-18T09:49:38;13.10;;;4.07;;
41657;SDS011;27347;57.132;-2.084;2022-08-18T09:57:23;13.10;;;4.55;;
41657;SDS011;27347;57.132;-2.084;2022-08-18T10:10:48;15.15;;;5.60;;
41657;SDS011;27347;57.132;-2.084;2022-08-18T10:16:22;13.32;;;4.97;;
41657;SDS011;27347;57.132;-2.084;2022-08-18T10:19:15;14.23;;;5.90;;
41657;SDS011;27347;57.132;-2.084;2022-08-18T10:24:22;12.23;;;5.65;;
41657;SDS011;27347;57.132;-2.084;2022-08-18T10:34:40;20.75;;;7.50;;
41657;SDS011;27347;57.132;-2.084;2022-08-18T10:39:44;17.85;;;7.50;;
41657;SDS011;27347;57.132;-2.084;2022-08-18T10:47:57;12.63;;;6.57;;
41657;SDS011;27347;57.132;-2.084;2022-08-18T10:50:29;13.05;;;6.97;;
41657;SDS011;27347;57.132;-2.084;2022-08-18T11:06:38;18.58;;;7.13;;
41657;SDS011;27347;57.132;-2.084;2022-08-18T11:09:06;14.25;;;6.93;;
41657;SDS011;27347;57.132;-2.084;2022-08-18T11:11:42;12.52;;;6.88;;
41657;SDS011;27347;57.132;-2.084;2022-08-18T11:14:18;13.95;;;5.90;;
41657;SDS011;27347;57.132;-2.084;2022-08-18T11:19:41;15.45;;;6.10;;
41657;SDS011;27347;57.132;-2.084;2022-08-18T11:22:24;13.65;;;6.75;;
41657;SDS011;27347;57.132;-2.084;2022-08-18T11:24:54;12.27;;;6.10;;
41657;SDS011;27347;57.132;-2.084;2022-08-18T11:27:28;14.10;;;6.30;;
41657;SDS011;27347;57.132;-2.084;2022-08-18T11:40:05;11.82;;;6.57;;
41657;SDS011;27347;57.132;-2.084;2022-08-18T11:42:37;11.27;;;6.82;;
41657;SDS011;27347;57.132;-2.084;2022-08-18T11:45:06;16.52;;;7.35;;
41657;SDS011;27347;57.132;-2.084;2022-08-18T11:47:47;19.48;;;7.10;;
41657;SDS011;27347;57.132;-2.084;2022-08-18T11:53:23;15.13;;;6.03;;
41657;SDS011;27347;57.132;-2.084;2022-08-18T11:58:53;13.45;;;6.78;;
41657;SDS011;27347;57.132;-2.084;2022-08-18T12:01:27;17.65;;;9.63;;
41657;SDS011;27347;57.132;-2.084;2022-08-18T12:04:06;21.35;;;11.05;;
41657;SDS011;27347;57.132;-2.084;2022-08-18T12:06:35;17.58;;;10.38;;
41657;SDS011;27347;57.132;-2.084;2022-08-18T12:09:03;21.27;;;10.70;;
41657;SDS011;27347;57.132;-2.084;2022-08-18T12:11:32;17.75;;;8.50;;
41657;SDS011;27347;57.132;-2.084;2022-08-18T12:14:02;17.27;;;8.18;;
41657;SDS011;27347;57.132;-2.084;2022-08-18T12:16:33;12.60;;;7.40;;
41657;SDS011;27347;57.132;-2.084;2022-08-18T12:21:35;20.92;;;7.75;;
41657;SDS011;27347;57.132;-2.084;2022-08-18T12:24:02;22.88;;;7.97;;
41657;SDS011;27347;57.132;-2.084;2022-08-18T12:26:28;19.35;;;6.93;;
41657;SDS011;27347;57.132;-2.084;2022-08-18T12:28:54;16.52;;;6.13;;
41657;SDS011;27347;57.132;-2.084;2022-08-18T12:31:19;17.63;;;6.45;;
41657;SDS011;27347;57.132;-2.084;2022-08-18T12:33:45;14.98;;;7.03;;
41657;SDS011;27347;57.132;-2.084;2022-08-18T12:36:11;14.85;;;5.95;;
41657;SDS011;27347;57.132;-2.084;2022-08-18T12:38:37;19.45;;;6.50;;
41657;SDS011;27347;57.132;-2.084;2022-08-18T12:41:03;16.92;;;6.53;;
41657;SDS011;27347;57.132;-2.084;2022-08-18T12:43:29;19.02;;;5.63;;
41657;SDS011;27347;57.132;-2.084;2022-08-18T12:45:56;18.58;;;6.07;;
41657;SDS011;27347;57.132;-2.084;2022-08-18T12:48:22;23.60;;;7.03;;
41657;SDS011;27347;57.132;-2.084;2022-08-18T12:50:48;21.95;;;6.82;;
41657;SDS011;27347;57.132;-2.084;2022-08-18T12:53:13;24.40;;;6.13;;
41657;SDS011;27347;57.132;-2.084;2022-08-18T12:55:40;16.70;;;6.35;;
41657;SDS011;27347;57.132;-2.084;2022-08-18T12:58:07;20.95;;;6.55;;
41657;SDS011;27347;57.132;-2.084;2022-08-18T13:00:32;13.35;;;5.40;;
41657;SDS011;27347;57.132;-2.084;2022-08-18T13:02:58;14.55;;;5.15;;
41657;SDS011;27347;57.132;-2.084;2022-08-18T13:05:24;17.23;;;6.25;;
41657;SDS011;27347;57.132;-2.084;2022-08-18T13:07:51;23.98;;;6.82;;
41657;SDS011;27347;57.132;-2.084;2022-08-18T13:10:17;15.05;;;5.57;;
41657;SDS011;27347;57.132;-2.084;2022-08-18T13:12:42;18.92;;;7.25;;
41657;SDS011;27347;57.132;-2.084;2022-08-18T13:15:08;15.60;;;5.80;;
41657;SDS011;27347;57.132;-2.084;2022-08-18T13:17:35;18.77;;;6.45;;
41657;SDS011;27347;57.132;-2.084;2022-08-18T13:20:03;16.60;;;6.45;;
41657;SDS011;27347;57.132;-2.084;2022-08-18T13:22:32;15.57;;;5.97;;
41657;SDS011;27347;57.132;-2.084;2022-08-18T13:24:57;19.17;;;5.70;;
41657;SDS011;27347;57.132;-2.084;2022-08-18T13:27:23;12.82;;;6.13;;
41657;SDS011;27347;57.132;-2.084;2022-08-18T13:29:48;21.30;;;5.72;;
41657;SDS011;27347;57.132;-2.084;2022-08-18T13:32:14;12.98;;;5.25;;
41657;SDS011;27347;57.132;-2.084;2022-08-18T13:34:39;13.18;;;5.28;;
41657;SDS011;27347;57.132;-2.084;2022-08-18T13:37:05;18.98;;;6.38;;
41657;SDS011;27347;57.132;-2.084;2022-08-18T13:39:30;15.23;;;5.18;;
41657;SDS011;27347;57.132;-2.084;2022-08-18T13:41:56;27.25;;;7.20;;
41657;SDS011;27347;57.132;-2.084;2022-08-18T13:44:22;19.20;;;6.05;;
41657;SDS011;27347;57.132;-2.084;2022-08-18T13:46:48;14.63;;;5.53;;
41657;SDS011;27347;57.132;-2.084;2022-08-18T13:49:14;18.98;;;5.45;;
41657;SDS011;27347;57.132;-2.084;2022-08-18T13:51:42;9.98;;;4.35;;
41657;SDS011;27347;57.132;-2.084;2022-08-18T13:54:08;18.73;;;6.53;;
41657;SDS011;27347;57.132;-2.084;2022-08-18T13:56:34;17.35;;;5.53;;
41657;SDS011;27347;57.132;-2.084;2022-08-18T13:59:00;21.40;;;6.80;;
41657;SDS011;27347;57.132;-2.084;2022-08-18T14:01:25;18.30;;;6.20;;
41657;SDS011;27347;57.132;-2.084;2022-08-18T14:03:51;20.75;;;6.07;;
41657;SDS011;27347;57.132;-2.084;2022-08-18T14:06:17;20.75;;;7.40;;
41657;SDS011;27347;57.132;-2.084;2022-08-18T14:08:44;17.13;;;6.88;;
41657;SDS011;27347;57.132;-2.084;2022-08-18T14:11:10;16.13;;;6.13;;
41657;SDS011;27347;57.132;-2.084;2022-08-18T14:13:35;15.88;;;7.15;;
41657;SDS011;27347;57.132;-2.084;2022-08-18T14:16:01;19.85;;;6.63;;
41657;SDS011;27347;57.132;-2.084;2022-08-18T14:18:26;15.75;;;6.90;;
41657;SDS011;27347;57.132;-2.084;2022-08-18T14:20:53;18.40;;;6.32;;
41657;SDS011;27347;57.132;-2.084;2022-08-18T14:23:39;13.20;;;5.53;;
41657;SDS011;27347;57.132;-2.084;2022-08-18T14:26:22;17.65;;;5.97;;
41657;SDS011;27347;57.132;-2.084;2022-08-18T14:29:06;19.55;;;6.32;;
41657;SDS011;27347;57.132;-2.084;2022-08-18T14:31:33;20.23;;;5.97;;
41657;SDS011;27347;57.132;-2.084;2022-08-18T14:33:58;15.68;;;6.10;;
41657;SDS011;27347;57.132;-2.084;2022-08-18T14:36:23;19.27;;;5.43;;
41657;SDS011;27347;57.132;-2.084;2022-08-18T14:38:49;11.57;;;5.30;;
41657;SDS011;27347;57.132;-2.084;2022-08-18T14:41:14;15.25;;;5.47;;
41657;SDS011;27347;57.132;-2.084;2022-08-18T14:43:40;11.95;;;4.47;;
41657;SDS011;27347;57.132;-2.084;2022-08-18T14:46:09;13.23;;;4.65;;
41657;SDS011;27347;57.132;-2.084;2022-08-18T14:48:35;14.63;;;5.47;;
41657;SDS011;27347;57.132;-2.084;2022-08-18T14:51:01;10.93;;;4.30;;
41657;SDS011;27347;57.132;-2.084;2022-08-18T14:53:28;14.43;;;5.00;;
41657;SDS011;27347;57.132;-2.084;2022-08-18T14:55:55;10.50;;;4.55;;
41657;SDS011;27347;57.132;-2.084;2022-08-18T14:58:21;12.73;;;4.38;;
41657;SDS011;27347;57.132;-2.084;2022-08-18T15:00:53;10.45;;;4.20;;
41657;SDS011;27347;57.132;-2.084;2022-08-18T15:03:19;11.07;;;5.03;;
41657;SDS011;27347;57.132;-2.084;2022-08-18T15:05:46;15.55;;;5.20;;
41657;SDS011;27347;57.132;-2.084;2022-08-18T15:08:11;14.07;;;3.80;;
41657;SDS011;27347;57.132;-2.084;2022-08-18T15:10:36;8.43;;;3.55;;
41657;SDS011;27347;57.132;-2.084;2022-08-18T15:13:02;12.93;;;4.38;;
41657;SDS011;27347;57.132;-2.084;2022-08-18T15:15:28;8.35;;;3.70;;
41657;SDS011;27347;57.132;-2.084;2022-08-18T15:17:54;11.40;;;3.70;;
41657;SDS011;27347;57.132;-2.084;2022-08-18T15:20:20;10.80;;;3.42;;
41657;SDS011;27347;57.132;-2.084;2022-08-18T15:22:48;7.72;;;3.15;;
41657;SDS011;27347;57.132;-2.084;2022-08-18T15:25:32;8.90;;;3.73;;
41657;SDS011;27347;57.132;-2.084;2022-08-18T15:28:07;13.77;;;3.95;;
41657;SDS011;27347;57.132;-2.084;2022-08-18T15:30:33;12.48;;;3.75;;
41657;SDS011;27347;57.132;-2.084;2022-08-18T15:33:01;9.02;;;3.85;;
41657;SDS011;27347;57.132;-2.084;2022-08-18T15:35:27;10.25;;;3.95;;
41657;SDS011;27347;57.132;-2.084;2022-08-18T15:37:52;12.57;;;4.45;;
41657;SDS011;27347;57.132;-2.084;2022-08-18T15:40:19;10.43;;;4.05;;
41657;SDS011;27347;57.132;-2.084;2022-08-18T15:42:54;7.28;;;3.40;;
41657;SDS011;27347;57.132;-2.084;2022-08-18T15:45:23;12.07;;;3.70;;
41657;SDS011;27347;57.132;-2.084;2022-08-18T15:48:01;11.52;;;3.30;;
41657;SDS011;27347;57.132;-2.084;2022-08-18T15:50:28;11.75;;;4.05;;
41657;SDS011;27347;57.132;-2.084;2022-08-18T15:52:55;10.50;;;3.60;;
41657;SDS011;27347;57.132;-2.084;2022-08-18T15:55:23;8.40;;;3.47;;
41657;SDS011;27347;57.132;-2.084;2022-08-18T15:57:50;9.73;;;3.15;;
41657;SDS011;27347;57.132;-2.084;2022-08-18T16:00:16;11.80;;;3.53;;
41657;SDS011;27347;57.132;-2.084;2022-08-18T16:03:26;15.23;;;3.60;;
41657;SDS011;27347;57.132;-2.084;2022-08-18T16:05:34;12.13;;;4.00;;
41657;SDS011;27347;57.132;-2.084;2022-08-18T16:08:02;11.20;;;3.25;;
41657;SDS011;27347;57.132;-2.084;2022-08-18T16:10:30;11.63;;;3.78;;
41657;SDS011;27347;57.132;-2.084;2022-08-18T16:12:57;15.00;;;4.15;;
41657;SDS011;27347;57.132;-2.084;2022-08-18T16:15:23;15.07;;;3.67;;
41657;SDS011;27347;57.132;-2.084;2022-08-18T16:17:50;10.77;;;3.33;;
41657;SDS011;27347;57.132;-2.084;2022-08-18T16:20:16;9.20;;;2.85;;
41657;SDS011;27347;57.132;-2.084;2022-08-18T16:22:43;9.55;;;2.63;;
41657;SDS011;27347;57.132;-2.084;2022-08-18T16:25:08;9.48;;;2.88;;
41657;SDS011;27347;57.132;-2.084;2022-08-18T16:27:34;8.88;;;3.15;;
41657;SDS011;27347;57.132;-2.084;2022-08-18T16:30:00;9.88;;;2.88;;
41657;SDS011;27347;57.132;-2.084;2022-08-18T16:32:28;9.82;;;2.72;;
41657;SDS011;27347;57.132;-2.084;2022-08-18T16:34:55;11.38;;;3.17;;
41657;SDS011;27347;57.132;-2.084;2022-08-18T16:37:21;8.98;;;3.17;;
41657;SDS011;27347;57.132;-2.084;2022-08-18T16:39:46;13.73;;;3.10;;
41657;SDS011;27347;57.132;-2.084;2022-08-18T16:42:11;11.73;;;3.15;;
41657;SDS011;27347;57.132;-2.084;2022-08-18T16:44:37;13.85;;;3.50;;
41657;SDS011;27347;57.132;-2.084;2022-08-18T16:47:03;12.90;;;3.38;;
41657;SDS011;27347;57.132;-2.084;2022-08-18T16:49:29;10.18;;;3.55;;
41657;SDS011;27347;57.132;-2.084;2022-08-18T16:51:55;7.95;;;2.55;;
41657;SDS011;27347;57.132;-2.084;2022-08-18T16:54:21;12.45;;;3.20;;
41657;SDS011;27347;57.132;-2.084;2022-08-18T16:56:46;7.00;;;2.65;;
41657;SDS011;27347;57.132;-2.084;2022-08-18T16:59:12;8.30;;;2.65;;
41657;SDS011;27347;57.132;-2.084;2022-08-18T17:01:56;14.38;;;2.72;;
41657;SDS011;27347;57.132;-2.084;2022-08-18T17:04:40;8.43;;;2.37;;
41657;SDS011;27347;57.132;-2.084;2022-08-18T17:07:05;12.02;;;2.92;;
41657;SDS011;27347;57.132;-2.084;2022-08-18T17:09:32;10.45;;;2.65;;
41657;SDS011;27347;57.132;-2.084;2022-08-18T17:11:59;9.07;;;2.38;;
41657;SDS011;27347;57.132;-2.084;2022-08-18T17:14:25;6.32;;;2.35;;
41657;SDS011;27347;57.132;-2.084;2022-08-18T17:16:53;11.80;;;2.30;;
41657;SDS011;27347;57.132;-2.084;2022-08-18T17:19:20;11.50;;;2.67;;
41657;SDS011;27347;57.132;-2.084;2022-08-18T17:21:47;8.15;;;2.50;;